Time;durP1;ratioP1;P1;durP2;ratioP2;P2;SDS_P1;SDS_P2;PMS_P1;PMS_P2;Temp;Humidity;BMP_temperature;BMP_pressure;BME280_temperature;BME280_humidity;BME280_pressure;Samples;Min_cycle;Max_cycle;Signal;HPM_P1;HPM_P2
2022/04/05 00:00:54;;;;;;;0.40;0.40;;;3.70;99.90;;;;;;5008263;28;20212;-80
2022/04/05 00:03:20;;;;;;;0.50;0.50;;;3.70;99.90;;;;;;5005391;28;20195;-80
2022/04/05 00:05:45;;;;;;;0.40;0.40;;;3.70;99.90;;;;;;5012284;28;20203;-80
2022/04/05 00:08:11;;;;;;;0.50;0.50;;;3.70;99.90;;;;;;5013570;28;20652;-81
2022/04/05 00:10:37;;;;;;;0.43;0.43;;;3.70;99.90;;;;;;5009807;28;20189;-80
2022/04/05 00:13:07;;;;;;;0.40;0.40;;;3.60;99.90;;;;;;5003531;28;20188;-80
2022/04/05 00:15:33;;;;;;;0.50;0.50;;;3.60;99.90;;;;;;5008235;28;20226;-80
2022/04/05 00:17:59;;;;;;;0.40;0.40;;;3.60;99.90;;;;;;5007233;28;20451;-80
2022/04/05 00:20:27;;;;;;;0.43;0.43;;;3.60;99.90;;;;;;5008052;28;20481;-80
2022/04/05 00:22:53;;;;;;;0.47;0.47;;;3.70;99.90;;;;;;5018761;28;20234;-80
2022/04/05 00:25:18;;;;;;;0.50;0.50;;;3.70;99.90;;;;;;4993556;28;20457;-80
2022/04/05 00:27:45;;;;;;;0.40;0.40;;;3.80;99.90;;;;;;5008632;28;20196;-80
2022/04/05 00:30:12;;;;;;;0.40;0.40;;;3.80;99.90;;;;;;5007455;28;20226;-79
2022/04/05 00:32:37;;;;;;;0.50;0.50;;;3.80;99.90;;;;;;4998880;28;20441;-80
2022/04/05 00:35:04;;;;;;;0.40;0.40;;;3.80;99.90;;;;;;5018835;28;20467;-79
2022/04/05 00:37:29;;;;;;;0.40;0.40;;;3.80;99.90;;;;;;5006779;28;20199;-80
2022/04/05 00:39:55;;;;;;;0.50;0.50;;;3.70;99.90;;;;;;5005692;28;20810;-80
2022/04/05 00:42:20;;;;;;;0.50;0.50;;;3.70;99.90;;;;;;5002957;28;20678;-79
2022/04/05 00:44:46;;;;;;;0.40;0.40;;;3.70;99.90;;;;;;5011673;28;20268;-80
2022/04/05 00:47:18;;;;;;;0.50;0.50;;;3.60;99.90;;;;;;5010880;28;20200;-80
2022/04/05 00:49:45;;;;;;;0.50;0.50;;;3.60;99.90;;;;;;5009134;28;20273;-80
2022/04/05 00:52:13;;;;;;;0.50;0.50;;;3.60;99.90;;;;;;5006808;28;20443;-79
2022/04/05 00:54:40;;;;;;;0.50;0.50;;;3.60;99.90;;;;;;5005970;28;20472;-80
2022/04/05 00:57:11;;;;;;;0.50;0.50;;;3.60;99.90;;;;;;5013973;28;20454;-79
2022/04/05 00:59:41;;;;;;;0.50;0.50;;;3.60;99.90;;;;;;5003848;28;21319;-80
2022/04/05 01:02:09;;;;;;;0.50;0.50;;;3.60;99.90;;;;;;5007059;28;20435;-80
2022/04/05 01:04:35;;;;;;;0.50;0.50;;;3.60;99.90;;;;;;5006443;28;20457;-80
2022/04/05 01:07:04;;;;;;;0.50;0.50;;;3.50;99.90;;;;;;5016475;28;20840;-79
2022/04/05 01:09:30;;;;;;;0.50;0.50;;;3.60;99.90;;;;;;4987988;28;20510;-80
2022/04/05 01:11:55;;;;;;;0.50;0.50;;;3.50;99.90;;;;;;4991071;28;20463;-80
2022/04/05 01:14:21;;;;;;;0.40;0.40;;;3.50;99.90;;;;;;4991000;28;20454;-81
2022/04/05 01:16:47;;;;;;;0.40;0.40;;;3.50;99.90;;;;;;4988739;28;20246;-81
2022/04/05 01:19:13;;;;;;;0.40;0.40;;;3.40;99.90;;;;;;4995761;28;20212;-81
2022/04/05 01:21:38;;;;;;;0.50;0.50;;;3.40;99.90;;;;;;4988168;28;20482;-81
2022/04/05 01:24:12;;;;;;;0.50;0.50;;;3.40;99.90;;;;;;5022639;28;20184;-81
2022/04/05 01:26:47;;;;;;;0.40;0.40;;;3.40;99.90;;;;;;4980632;28;20649;-81
2022/04/05 01:29:15;;;;;;;0.47;0.47;;;3.40;99.90;;;;;;5011860;28;20433;-82
2022/04/05 01:31:46;;;;;;;0.40;0.40;;;3.40;99.90;;;;;;5009153;28;20869;-81
2022/04/05 01:34:13;;;;;;;0.50;0.50;;;3.40;99.90;;;;;;5018344;28;20459;-81
2022/04/05 01:36:50;;;;;;;0.50;0.50;;;3.40;99.90;;;;;;5010816;28;20564;-82
2022/04/05 01:39:18;;;;;;;0.50;0.50;;;3.40;99.90;;;;;;4997354;28;20974;-81
2022/04/05 01:41:44;;;;;;;0.60;0.60;;;3.30;99.90;;;;;;5005291;28;20455;-82
2022/04/05 01:44:11;;;;;;;0.50;0.50;;;3.30;99.90;;;;;;5015808;28;20518;-81
2022/04/05 01:46:37;;;;;;;0.50;0.50;;;3.30;99.90;;;;;;4992923;28;20443;-81
2022/04/05 01:49:10;;;;;;;0.40;0.40;;;3.40;99.90;;;;;;4998868;28;20973;-81
2022/04/05 01:51:37;;;;;;;0.50;0.50;;;3.40;99.90;;;;;;5010345;28;20192;-82
2022/04/05 01:54:07;;;;;;;0.50;0.50;;;3.30;99.90;;;;;;5003631;28;20496;-80
2022/04/05 01:56:44;;;;;;;0.50;0.50;;;3.30;99.90;;;;;;5008993;28;20495;-81
2022/04/05 01:59:12;;;;;;;0.60;0.60;;;3.20;99.90;;;;;;5008025;28;20474;-81
2022/04/05 02:01:38;;;;;;;0.50;0.50;;;3.20;99.90;;;;;;4995070;28;21039;-81
2022/04/05 02:04:04;;;;;;;0.40;0.40;;;3.30;99.90;;;;;;4995122;28;20439;-81
2022/04/05 02:06:30;;;;;;;0.50;0.50;;;3.20;99.90;;;;;;5020906;28;20566;-81
2022/04/05 02:08:55;;;;;;;0.40;0.40;;;3.20;99.90;;;;;;5012722;28;21714;-81
2022/04/05 02:11:22;;;;;;;0.50;0.50;;;3.20;99.90;;;;;;4992362;28;20597;-82
2022/04/05 02:13:48;;;;;;;0.50;0.50;;;3.20;99.90;;;;;;4997736;28;20255;-81
2022/04/05 02:16:14;;;;;;;0.50;0.50;;;3.20;99.90;;;;;;5009802;28;20499;-82
2022/04/05 02:18:41;;;;;;;0.50;0.50;;;3.20;99.90;;;;;;4993694;28;20427;-81
2022/04/05 02:21:07;;;;;;;0.50;0.50;;;3.20;99.90;;;;;;5014057;28;20191;-81
2022/04/05 02:23:32;;;;;;;0.43;0.43;;;3.20;99.90;;;;;;5017478;28;20843;-81
2022/04/05 02:25:59;;;;;;;0.47;0.47;;;3.20;99.90;;;;;;5014076;28;20554;-81
2022/04/05 02:28:25;;;;;;;0.50;0.50;;;3.20;99.90;;;;;;5002751;28;20274;-81
2022/04/05 02:30:51;;;;;;;0.50;0.50;;;3.20;99.90;;;;;;5016841;28;20432;-81
2022/04/05 02:33:17;;;;;;;0.50;0.50;;;3.20;99.90;;;;;;5014655;28;20470;-81
2022/04/05 02:35:43;;;;;;;0.47;0.47;;;3.20;99.90;;;;;;5011049;28;20471;-81
2022/04/05 02:38:08;;;;;;;0.50;0.50;;;3.20;99.90;;;;;;4990166;28;20176;-82
2022/04/05 02:40:34;;;;;;;0.40;0.40;;;3.10;99.90;;;;;;5007835;28;20246;-81
2022/04/05 02:43:00;;;;;;;0.50;0.50;;;3.10;99.90;;;;;;5001447;28;20187;-81
2022/04/05 02:45:25;;;;;;;0.50;0.50;;;3.10;99.90;;;;;;5009576;28;20666;-81
2022/04/05 02:47:51;;;;;;;0.50;0.50;;;3.10;99.90;;;;;;5010059;28;20200;-81
2022/04/05 02:50:18;;;;;;;0.40;0.40;;;3.10;99.90;;;;;;5008475;28;20703;-81
2022/04/05 02:52:47;;;;;;;0.60;0.60;;;3.10;99.90;;;;;;5005599;28;20212;-81
2022/04/05 02:55:13;;;;;;;0.50;0.50;;;3.10;99.90;;;;;;5017482;28;20569;-81
2022/04/05 02:57:40;;;;;;;0.43;0.43;;;3.10;99.90;;;;;;5010752;28;20539;-81
2022/04/05 03:00:11;;;;;;;0.50;0.50;;;3.00;99.90;;;;;;4989330;28;20184;-81
2022/04/05 03:02:37;;;;;;;0.50;0.50;;;3.10;99.90;;;;;;5013487;28;20445;-82
2022/04/05 03:05:05;;;;;;;0.43;0.43;;;3.10;99.90;;;;;;5015882;28;20461;-81
2022/04/05 03:07:31;;;;;;;0.50;0.50;;;3.20;99.90;;;;;;5010220;28;20504;-81
2022/04/05 03:09:57;;;;;;;0.50;0.50;;;3.20;99.90;;;;;;5014986;28;20894;-81
2022/04/05 03:12:23;;;;;;;0.47;0.47;;;3.20;99.90;;;;;;5027086;28;20600;-82
2022/04/05 03:14:48;;;;;;;0.50;0.50;;;3.20;99.90;;;;;;4996715;28;20184;-82
2022/04/05 03:17:14;;;;;;;0.40;0.40;;;3.10;99.90;;;;;;5007881;28;20640;-81
2022/04/05 03:19:39;;;;;;;0.50;0.50;;;3.10;99.90;;;;;;4987503;28;20271;-81
2022/04/05 03:22:05;;;;;;;0.40;0.40;;;3.00;99.90;;;;;;4989709;28;20258;-81
2022/04/05 03:24:31;;;;;;;0.50;0.50;;;3.00;99.90;;;;;;5020415;28;20188;-81
2022/04/05 03:26:57;;;;;;;0.50;0.50;;;3.00;99.90;;;;;;5012700;28;20439;-81
2022/04/05 03:29:23;;;;;;;0.50;0.50;;;3.00;99.90;;;;;;5015607;28;20450;-82
2022/04/05 03:31:49;;;;;;;0.50;0.50;;;3.00;99.90;;;;;;5005537;28;20818;-82
2022/04/05 03:34:14;;;;;;;0.43;0.43;;;2.90;99.90;;;;;;4992043;28;20200;-82
2022/04/05 03:36:43;;;;;;;0.40;0.40;;;2.90;99.90;;;;;;5016272;28;20223;-81
2022/04/05 03:39:10;;;;;;;0.40;0.40;;;2.90;99.90;;;;;;5016514;28;20747;-81
2022/04/05 03:41:36;;;;;;;0.50;0.50;;;2.90;99.90;;;;;;5018719;28;20462;-82
2022/04/05 03:44:02;;;;;;;0.50;0.50;;;2.90;99.90;;;;;;5009431;28;20505;-81
2022/04/05 03:46:28;;;;;;;0.40;0.40;;;2.90;99.90;;;;;;5008233;28;20443;-81
2022/04/05 03:48:53;;;;;;;0.40;0.40;;;2.90;99.90;;;;;;5006062;28;20203;-81
2022/04/05 03:51:18;;;;;;;0.50;0.50;;;2.90;99.90;;;;;;4989370;28;20188;-81
2022/04/05 03:53:44;;;;;;;0.50;0.50;;;2.90;99.90;;;;;;5016788;28;20289;-81
2022/04/05 03:56:09;;;;;;;0.40;0.40;;;2.90;99.90;;;;;;5008110;28;20235;-81
2022/04/05 03:58:35;;;;;;;0.40;0.40;;;2.90;99.90;;;;;;5007631;28;20284;-81
2022/04/05 04:01:00;;;;;;;0.50;0.50;;;2.80;99.90;;;;;;5010019;28;20281;-81
2022/04/05 04:03:26;;;;;;;0.50;0.50;;;2.80;99.90;;;;;;5008051;28;20767;-81
2022/04/05 04:05:52;;;;;;;0.40;0.40;;;2.80;99.90;;;;;;5011176;28;20196;-81
2022/04/05 04:08:18;;;;;;;0.50;0.50;;;2.80;99.90;;;;;;5008791;28;20274;-81
2022/04/05 04:10:43;;;;;;;0.50;0.50;;;2.80;99.90;;;;;;5008413;28;20192;-81
2022/04/05 04:13:09;;;;;;;0.40;0.40;;;2.80;99.90;;;;;;5010560;28;20447;-80
2022/04/05 04:15:35;;;;;;;0.50;0.50;;;2.70;99.90;;;;;;5012003;28;20235;-81
2022/04/05 04:18:00;;;;;;;0.50;0.50;;;2.70;99.90;;;;;;5007499;28;20840;-81
2022/04/05 04:20:26;;;;;;;0.50;0.50;;;2.70;99.90;;;;;;5015367;28;20195;-81
2022/04/05 04:22:51;;;;;;;0.40;0.40;;;2.70;99.90;;;;;;5007540;28;20188;-81
2022/04/05 04:25:17;;;;;;;0.50;0.50;;;2.70;99.90;;;;;;5009187;28;20287;-81
2022/04/05 04:27:42;;;;;;;0.60;0.60;;;2.80;99.90;;;;;;4991411;28;20187;-81
2022/04/05 04:30:08;;;;;;;0.60;0.60;;;2.70;99.90;;;;;;5007689;28;20187;-81
2022/04/05 04:32:34;;;;;;;0.50;0.50;;;2.70;99.90;;;;;;5010686;28;20189;-81
2022/04/05 04:34:59;;;;;;;0.50;0.50;;;2.60;99.90;;;;;;5014623;28;20438;-81
2022/04/05 04:37:25;;;;;;;0.40;0.40;;;2.60;99.90;;;;;;5009829;28;20226;-81
2022/04/05 04:39:51;;;;;;;0.60;0.60;;;2.60;99.90;;;;;;5007928;28;20625;-81
2022/04/05 04:42:16;;;;;;;0.50;0.50;;;2.60;99.90;;;;;;5004996;28;20275;-81
2022/04/05 04:44:42;;;;;;;0.40;0.40;;;2.60;99.90;;;;;;5016114;28;20185;-80
2022/04/05 04:47:08;;;;;;;0.30;0.30;;;2.50;99.90;;;;;;4981218;28;20186;-81
2022/04/05 04:49:33;;;;;;;0.50;0.50;;;2.50;99.90;;;;;;4994145;28;20454;-81
2022/04/05 04:51:59;;;;;;;0.40;0.40;;;2.60;99.90;;;;;;5016194;28;20188;-81
2022/04/05 04:54:25;;;;;;;0.50;0.50;;;2.50;99.90;;;;;;5014212;28;20228;-81
2022/04/05 04:56:51;;;;;;;0.57;0.57;;;2.60;99.90;;;;;;5011374;28;20264;-81
2022/04/05 04:59:16;;;;;;;0.50;0.50;;;2.60;99.90;;;;;;5013591;28;21001;-80
2022/04/05 05:01:42;;;;;;;0.60;0.60;;;2.60;99.90;;;;;;5011770;28;20192;-80
2022/04/05 05:04:07;;;;;;;0.50;0.50;;;2.60;99.90;;;;;;5009645;28;20691;-81
2022/04/05 05:06:32;;;;;;;0.50;0.50;;;2.60;99.90;;;;;;5021296;28;20192;-80
2022/04/05 05:08:58;;;;;;;0.50;0.50;;;2.50;99.90;;;;;;5010195;28;20628;-81
2022/04/05 05:11:24;;;;;;;0.50;0.50;;;2.50;99.90;;;;;;5003827;28;20720;-81
2022/04/05 05:13:49;;;;;;;0.47;0.47;;;2.50;99.90;;;;;;5018016;28;20644;-81
2022/04/05 05:16:15;;;;;;;0.60;0.60;;;2.50;99.90;;;;;;5008747;28;20263;-81
2022/04/05 05:18:40;;;;;;;0.50;0.50;;;2.40;99.90;;;;;;5011902;28;20662;-81
2022/04/05 05:21:06;;;;;;;0.60;0.60;;;2.40;99.90;;;;;;5009370;28;20200;-80
2022/04/05 05:23:31;;;;;;;0.57;0.57;;;2.50;99.90;;;;;;5009492;28;20196;-81
2022/04/05 05:25:57;;;;;;;0.50;0.50;;;2.50;99.90;;;;;;5010849;28;20263;-81
2022/04/05 05:28:22;;;;;;;0.50;0.50;;;2.60;99.90;;;;;;4999307;28;20667;-80
2022/04/05 05:30:48;;;;;;;0.50;0.50;;;2.60;99.90;;;;;;4994150;28;20218;-81
2022/04/05 05:33:13;;;;;;;0.50;0.50;;;2.60;99.90;;;;;;5011562;28;20189;-80
2022/04/05 05:35:39;;;;;;;0.40;0.40;;;2.60;99.90;;;;;;5010625;28;20216;-80
2022/04/05 05:38:05;;;;;;;0.50;0.50;;;2.70;99.90;;;;;;5010418;28;20188;-80
2022/04/05 05:40:30;;;;;;;0.60;0.60;;;2.80;99.90;;;;;;5010974;28;20188;-80
2022/04/05 05:43:02;;;;;;;0.40;0.40;;;2.90;99.90;;;;;;5016573;28;20629;-80
2022/04/05 05:45:29;;;;;;;0.60;0.60;;;2.90;99.90;;;;;;5011603;28;20195;-80
2022/04/05 05:47:55;;;;;;;0.50;0.50;;;3.00;99.90;;;;;;5008634;28;20475;-80
2022/04/05 05:50:22;;;;;;;0.50;0.50;;;3.10;99.90;;;;;;5020413;28;20446;-79
2022/04/05 05:52:47;;;;;;;0.50;0.50;;;3.20;99.90;;;;;;5007527;28;20478;-80
2022/04/05 05:55:15;;;;;;;0.50;0.50;;;3.30;99.90;;;;;;5010338;28;20806;-80
2022/04/05 05:57:41;;;;;;;0.50;0.50;;;3.30;99.90;;;;;;5011123;28;20188;-80
2022/04/05 06:00:09;;;;;;;0.50;0.50;;;3.40;99.90;;;;;;5009601;28;20462;-80
2022/04/05 06:02:39;;;;;;;0.50;0.50;;;3.50;99.90;;;;;;5010629;28;20474;-80
2022/04/05 06:05:05;;;;;;;0.50;0.50;;;3.60;99.90;;;;;;4992071;28;20827;-80
2022/04/05 06:07:31;;;;;;;0.50;0.50;;;3.70;99.90;;;;;;4991560;28;20951;-80
2022/04/05 06:09:56;;;;;;;0.50;0.50;;;3.80;99.90;;;;;;5031706;28;20488;-80
2022/04/05 06:12:22;;;;;;;0.50;0.50;;;3.90;99.90;;;;;;5012793;28;20275;-80
2022/04/05 06:14:47;;;;;;;0.40;0.40;;;4.00;99.90;;;;;;4999766;28;20664;-80
2022/04/05 06:17:13;;;;;;;0.50;0.50;;;4.10;99.90;;;;;;5008674;28;20220;-79
2022/04/05 06:19:38;;;;;;;0.50;0.50;;;4.10;99.90;;;;;;5008550;28;20227;-79
2022/04/05 06:22:04;;;;;;;0.50;0.50;;;4.10;99.90;;;;;;5007913;28;20674;-79
2022/04/05 06:24:30;;;;;;;0.50;0.50;;;4.10;99.90;;;;;;5006778;28;20275;-79
2022/04/05 06:26:56;;;;;;;0.43;0.43;;;4.10;99.90;;;;;;5010298;28;20280;-79
2022/04/05 06:29:21;;;;;;;0.40;0.40;;;4.20;99.90;;;;;;5007922;28;20882;-79
2022/04/05 06:31:47;;;;;;;0.40;0.40;;;4.30;99.90;;;;;;5009152;28;20696;-80
2022/04/05 06:34:13;;;;;;;0.40;0.40;;;4.40;99.90;;;;;;4998986;28;20231;-79
2022/04/05 06:36:40;;;;;;;0.40;0.40;;;4.40;99.90;;;;;;5007668;28;20245;-80
2022/04/05 06:39:06;;;;;;;0.50;0.50;;;4.30;99.90;;;;;;5007161;28;20446;-80
2022/04/05 06:41:32;;;;;;;0.50;0.50;;;4.30;99.90;;;;;;5005160;28;20861;-80
2022/04/05 06:43:57;;;;;;;0.50;0.50;;;4.10;99.90;;;;;;5007063;28;20486;-80
2022/04/05 06:46:23;;;;;;;0.40;0.40;;;4.10;99.90;;;;;;5007379;28;20528;-80
2022/04/05 06:48:48;;;;;;;0.50;0.50;;;4.20;99.90;;;;;;4976457;28;20259;-79
2022/04/05 06:51:14;;;;;;;0.50;0.50;;;4.40;99.90;;;;;;5009407;28;20185;-80
2022/04/05 06:53:39;;;;;;;0.40;0.40;;;4.60;99.90;;;;;;5007484;28;20219;-79
2022/04/05 06:56:06;;;;;;;0.40;0.40;;;4.70;99.90;;;;;;5008576;28;20232;-80
2022/04/05 06:58:32;;;;;;;0.40;0.40;;;4.70;99.90;;;;;;4992201;28;20181;-79
2022/04/05 07:00:57;;;;;;;0.30;0.30;;;4.70;99.90;;;;;;5009668;28;20958;-80
2022/04/05 07:03:23;;;;;;;0.40;0.40;;;4.90;99.90;;;;;;5010404;28;20262;-80
2022/04/05 07:05:49;;;;;;;0.40;0.40;;;5.00;99.90;;;;;;5012087;28;20201;-80
2022/04/05 07:08:14;;;;;;;0.40;0.40;;;4.90;99.90;;;;;;5008732;28;20327;-79
2022/04/05 07:10:40;;;;;;;0.40;0.40;;;5.00;99.90;;;;;;5002211;28;20276;-80
2022/04/05 07:13:08;;;;;;;0.30;0.30;;;5.20;99.90;;;;;;5010744;28;20656;-80
2022/04/05 07:15:34;;;;;;;0.40;0.40;;;5.30;99.90;;;;;;5022105;28;20199;-80
2022/04/05 07:17:59;;;;;;;0.40;0.40;;;5.20;99.90;;;;;;5027454;28;20449;-80
2022/04/05 07:20:25;;;;;;;0.50;0.50;;;5.30;99.90;;;;;;5013342;28;20192;-79
2022/04/05 07:22:50;;;;;;;0.33;0.33;;;5.60;99.90;;;;;;5002272;28;20573;-80
2022/04/05 07:25:19;;;;;;;0.40;0.40;;;5.70;99.90;;;;;;5013015;28;20652;-80
2022/04/05 07:27:45;;;;;;;0.40;0.40;;;5.70;99.90;;;;;;5011414;28;20184;-80
2022/04/05 07:30:12;;;;;;;0.40;0.40;;;5.90;99.90;;;;;;5022094;28;20949;-80
2022/04/05 07:32:39;;;;;;;0.40;0.40;;;6.00;99.90;;;;;;5010910;28;20191;-80
2022/04/05 07:35:05;;;;;;;0.40;0.40;;;5.90;99.90;;;;;;4982270;28;20448;-80
2022/04/05 07:37:31;;;;;;;0.40;0.40;;;6.00;99.90;;;;;;4986897;28;20525;-80
2022/04/05 07:40:00;;;;;;;0.40;0.40;;;6.10;99.90;;;;;;5010783;28;20574;-80
2022/04/05 07:42:26;;;;;;;0.40;0.40;;;6.10;99.90;;;;;;4992398;28;20239;-80
2022/04/05 07:44:52;;;;;;;0.30;0.30;;;6.00;99.90;;;;;;4994535;28;20446;-80
2022/04/05 07:47:18;;;;;;;0.40;0.40;;;5.90;99.90;;;;;;5015484;28;20500;-80
2022/04/05 07:49:44;;;;;;;0.40;0.40;;;6.40;99.90;;;;;;5010050;28;20451;-80
2022/04/05 07:52:10;;;;;;;0.30;0.30;;;6.50;99.90;;;;;;5006842;28;20459;-80
2022/04/05 07:54:35;;;;;;;0.33;0.33;;;6.60;99.90;;;;;;5006439;28;21384;-79
2022/04/05 07:57:02;;;;;;;0.37;0.37;;;6.60;99.90;;;;;;5006601;28;20836;-80
2022/04/05 07:59:28;;;;;;;0.40;0.40;;;7.00;99.90;;;;;;5010872;28;20546;-80
2022/04/05 08:01:54;;;;;;;0.40;0.40;;;6.70;99.90;;;;;;5011260;28;20451;-79
2022/04/05 08:04:20;;;;;;;0.30;0.30;;;6.80;99.90;;;;;;4991177;28;20187;-80
2022/04/05 08:06:45;;;;;;;0.30;0.30;;;6.70;99.90;;;;;;5013510;28;20439;-80
2022/04/05 08:09:11;;;;;;;0.30;0.30;;;6.70;99.90;;;;;;4997988;28;20197;-80
2022/04/05 08:11:36;;;;;;;0.30;0.30;;;6.50;99.90;;;;;;5009984;28;20194;-80
2022/04/05 08:14:02;;;;;;;0.30;0.30;;;6.80;99.90;;;;;;5004962;28;20180;-80
2022/04/05 08:16:28;;;;;;;0.30;0.30;;;6.90;99.90;;;;;;5006511;28;20247;-80
2022/04/05 08:18:54;;;;;;;0.30;0.30;;;6.60;99.90;;;;;;5009770;28;20203;-79
2022/04/05 08:21:20;;;;;;;0.30;0.30;;;6.60;99.90;;;;;;4991472;28;20459;-80
2022/04/05 08:23:45;;;;;;;0.30;0.30;;;6.80;99.90;;;;;;5008361;28;20443;-79
2022/04/05 08:26:11;;;;;;;0.30;0.30;;;6.70;99.90;;;;;;4992750;28;20227;-79
2022/04/05 08:28:37;;;;;;;0.30;0.30;;;6.70;99.90;;;;;;5012910;28;20680;-80
2022/04/05 08:31:02;;;;;;;0.30;0.30;;;6.70;99.90;;;;;;4996811;28;20959;-79
2022/04/05 08:33:28;;;;;;;0.30;0.30;;;6.60;99.90;;;;;;5032970;28;20184;-80
2022/04/05 08:35:55;;;;;;;0.30;0.30;;;6.70;99.90;;;;;;5029536;28;20243;-79
2022/04/05 08:38:20;;;;;;;0.30;0.30;;;6.80;99.90;;;;;;5026088;28;20278;-79
2022/04/05 08:40:46;;;;;;;0.30;0.30;;;6.70;99.90;;;;;;5021238;28;20879;-80
2022/04/05 08:43:12;;;;;;;0.40;0.40;;;6.50;99.90;;;;;;4985278;28;20184;-79
2022/04/05 08:45:39;;;;;;;0.30;0.30;;;6.60;99.90;;;;;;5010137;28;20192;-80
2022/04/05 08:48:09;;;;;;;0.30;0.30;;;6.50;99.90;;;;;;4989063;28;20279;-80
2022/04/05 08:50:35;;;;;;;0.40;0.40;;;6.40;99.90;;;;;;4987148;28;20834;-80
2022/04/05 08:53:01;;;;;;;0.30;0.30;;;6.50;99.90;;;;;;5011233;28;21025;-80
2022/04/05 08:55:28;;;;;;;0.40;0.40;;;6.20;99.90;;;;;;5012665;28;20518;-80
2022/04/05 08:57:55;;;;;;;0.30;0.30;;;6.30;99.90;;;;;;5011573;28;20455;-80
2022/04/05 09:00:22;;;;;;;0.30;0.30;;;6.30;99.90;;;;;;5012461;28;20505;-80
2022/04/05 09:02:56;;;;;;;0.30;0.30;;;6.30;99.90;;;;;;5012644;28;20454;-77
2022/04/05 09:05:39;;;;;;;0.40;0.40;;;6.20;99.90;;;;;;5010186;28;20914;-78
2022/04/05 09:08:14;;;;;;;0.30;0.30;;;5.90;99.90;;;;;;5000854;28;20438;-80
2022/04/05 09:10:41;;;;;;;0.30;0.30;;;5.50;99.90;;;;;;4990902;28;20458;-81
2022/04/05 09:13:12;;;;;;;0.30;0.30;;;5.30;99.90;;;;;;5010495;28;20524;-80
2022/04/05 09:15:41;;;;;;;0.30;0.30;;;5.30;99.90;;;;;;4995215;28;20981;-81
2022/04/05 09:18:06;;;;;;;0.30;0.30;;;5.60;99.90;;;;;;4995347;28;20451;-80
2022/04/05 09:20:44;;;;;;;0.30;0.30;;;5.80;99.90;;;;;;5021698;28;20451;-81
2022/04/05 09:23:34;;;;;;;0.30;0.30;;;5.70;99.90;;;;;;5013417;28;20180;-81
2022/04/05 09:26:05;;;;;;;0.40;0.40;;;5.40;99.90;;;;;;5014623;28;20458;-81
2022/04/05 09:28:39;;;;;;;0.40;0.40;;;5.30;99.90;;;;;;4992050;28;20541;-81
2022/04/05 09:31:08;;;;;;;0.30;0.30;;;5.20;99.90;;;;;;5010791;28;20535;-80
2022/04/05 09:33:37;;;;;;;0.30;0.30;;;5.10;99.90;;;;;;5016446;28;20901;-80
2022/04/05 09:36:12;;;;;;;0.40;0.40;;;4.90;99.90;;;;;;5008129;28;20479;-80
2022/04/05 09:38:40;;;;;;;0.40;0.40;;;5.10;99.90;;;;;;5020475;28;20441;-81
2022/04/05 09:41:19;;;;;;;0.37;0.37;;;5.10;99.90;;;;;;5018645;28;20454;-80
2022/04/05 09:43:56;;;;;;;0.37;0.37;;;5.00;99.90;;;;;;5006488;28;20435;-81
2022/04/05 09:46:23;;;;;;;0.40;0.40;;;5.20;99.90;;;;;;5010051;28;20459;-80
2022/04/05 09:49:01;;;;;;;0.30;0.30;;;5.80;99.90;;;;;;5006757;28;20442;-80
2022/04/05 09:51:26;;;;;;;0.30;0.30;;;6.20;99.90;;;;;;4992987;28;20451;-80
2022/04/05 09:53:57;;;;;;;0.40;0.40;;;6.80;99.90;;;;;;5011624;28;20443;-80
2022/04/05 09:56:39;;;;;;;0.30;0.30;;;7.50;99.90;;;;;;5020660;28;20985;-81
2022/04/05 09:59:14;;;;;;;0.40;0.40;;;7.20;99.90;;;;;;4990909;28;20435;-81
2022/04/05 10:01:40;;;;;;;0.30;0.30;;;7.10;99.90;;;;;;5012410;28;20451;-78
2022/04/05 10:04:09;;;;;;;0.30;0.30;;;7.10;99.90;;;;;;5011492;28;20451;-78
2022/04/05 10:06:39;;;;;;;0.30;0.30;;;7.20;99.90;;;;;;5013907;28;20865;-78
2022/04/05 10:09:06;;;;;;;0.30;0.30;;;6.90;99.90;;;;;;5011306;28;20459;-77
2022/04/05 10:11:33;;;;;;;0.30;0.30;;;6.70;99.90;;;;;;4993756;28;20505;-80
2022/04/05 10:14:00;;;;;;;0.30;0.30;;;6.70;99.90;;;;;;5013746;28;20584;-80
2022/04/05 10:16:27;;;;;;;0.40;0.40;;;6.00;99.90;;;;;;5031954;28;21008;-81
2022/04/05 10:18:57;;;;;;;0.40;0.40;;;5.90;99.90;;;;;;5014595;28;20484;-83
2022/04/05 10:21:25;;;;;;;0.30;0.30;;;5.90;99.90;;;;;;5012784;28;20446;-83
2022/04/05 10:23:53;;;;;;;0.30;0.30;;;6.00;99.90;;;;;;5002681;28;20458;-83
2022/04/05 10:26:24;;;;;;;0.40;0.40;;;6.00;99.90;;;;;;5010148;28;20723;-83
2022/04/05 10:28:51;;;;;;;0.40;0.40;;;6.20;99.90;;;;;;4989504;28;20455;-82
2022/04/05 10:31:26;;;;;;;0.30;0.30;;;6.30;99.90;;;;;;4990501;28;20454;-82
2022/04/05 10:34:17;;;;;;;0.30;0.30;;;6.30;99.90;;;;;;5011414;28;20446;-81
2022/04/05 10:37:18;;;;;;;0.30;0.30;;;6.60;99.90;;;;;;5009810;28;20486;-81
2022/04/05 10:39:58;;;;;;;0.40;0.40;;;6.80;99.90;;;;;;5008743;28;20439;-81
2022/04/05 10:42:32;;;;;;;0.30;0.30;;;7.20;99.90;;;;;;5009387;28;21299;-82
2022/04/05 10:45:17;;;;;;;0.30;0.30;;;7.30;99.90;;;;;;5001616;28;20445;-81
2022/04/05 10:48:11;;;;;;;0.20;0.20;;;7.70;99.90;;;;;;5008881;28;20447;-78
2022/04/05 10:50:37;;;;;;;0.30;0.30;;;7.90;99.90;;;;;;5011967;28;20423;-78
2022/04/05 10:53:20;;;;;;;0.20;0.20;;;8.00;99.90;;;;;;5007865;28;20435;-78
2022/04/05 10:56:08;;;;;;;0.20;0.20;;;8.20;99.90;;;;;;5009167;28;20529;-79
2022/04/05 10:58:35;;;;;;;0.20;0.20;;;8.10;99.90;;;;;;5005643;28;20447;-78
2022/04/05 11:01:18;;;;;;;0.30;0.30;;;8.20;99.90;;;;;;5009740;28;20443;-78
2022/04/05 11:04:17;;;;;;;0.30;0.30;;;8.10;99.90;;;;;;5007667;28;20490;-79
2022/04/05 11:09:43;;;;;;;0.30;0.30;;;8.40;99.90;;;;;;5008451;28;20582;-78
2022/04/05 11:12:20;;;;;;;0.30;0.30;;;8.50;99.90;;;;;;4995318;28;20460;-78
2022/04/05 11:14:50;;;;;;;0.30;0.30;;;8.70;99.90;;;;;;5009795;28;20483;-77
2022/04/05 11:17:17;;;;;;;0.30;0.30;;;8.50;99.90;;;;;;5008878;28;20485;-79
2022/04/05 11:19:45;;;;;;;0.30;0.30;;;8.60;99.90;;;;;;5012393;28;20435;-78
2022/04/05 11:22:20;;;;;;;0.30;0.30;;;8.50;99.90;;;;;;4996482;28;20465;-79
2022/04/05 11:25:00;;;;;;;0.30;0.30;;;8.50;99.90;;;;;;5013091;28;20439;-79
2022/04/05 11:27:26;;;;;;;0.30;0.30;;;8.20;99.90;;;;;;5007718;28;20470;-79
2022/04/05 11:30:28;;;;;;;0.30;0.30;;;8.20;99.90;;;;;;5023364;28;20474;-79
2022/04/05 11:33:09;;;;;;;0.30;0.30;;;8.20;99.90;;;;;;5015551;28;20187;-79
2022/04/05 11:35:51;;;;;;;0.20;0.20;;;7.80;99.90;;;;;;5010895;28;20822;-80
2022/04/05 11:38:17;;;;;;;0.30;0.30;;;7.80;99.90;;;;;;5010603;28;20504;-81
2022/04/05 11:40:44;;;;;;;0.20;0.20;;;8.00;99.90;;;;;;5007842;28;20526;-81
2022/04/05 11:43:24;;;;;;;0.30;0.30;;;8.10;99.90;;;;;;4990637;28;20192;-81
2022/04/05 11:45:52;;;;;;;0.20;0.20;;;7.90;99.90;;;;;;5005444;28;21068;-81
2022/04/05 11:48:20;;;;;;;0.30;0.30;;;7.90;99.90;;;;;;5012077;28;20443;-82
2022/04/05 11:50:47;;;;;;;0.23;0.23;;;8.10;99.90;;;;;;5011345;28;20805;-80
2022/04/05 11:53:24;;;;;;;0.30;0.30;;;8.30;99.90;;;;;;5009148;28;20435;-81
2022/04/05 11:56:06;;;;;;;0.30;0.30;;;8.50;99.90;;;;;;5004738;28;20479;-81
2022/04/05 11:58:34;;;;;;;0.20;0.20;;;8.00;99.90;;;;;;5011261;28;20439;-77
2022/04/05 12:01:03;;;;;;;0.30;0.30;;;8.00;99.90;;;;;;5007977;28;20439;-77
2022/04/05 12:03:29;;;;;;;0.30;0.30;;;8.20;99.90;;;;;;4989783;28;20449;-77
2022/04/05 12:05:55;;;;;;;0.30;0.30;;;8.10;99.90;;;;;;5019803;28;20470;-77
2022/04/05 12:08:21;;;;;;;0.30;0.30;;;8.10;99.90;;;;;;5010713;28;20597;-77
2022/04/05 12:10:46;;;;;;;0.30;0.30;;;8.30;99.90;;;;;;5009173;28;20192;-77
2022/04/05 12:13:12;;;;;;;0.20;0.20;;;8.10;99.90;;;;;;4990084;28;20184;-77
2022/04/05 12:15:38;;;;;;;0.30;0.30;;;8.10;99.90;;;;;;4981063;28;20626;-77
2022/04/05 12:18:22;;;;;;;0.30;0.30;;;8.20;99.90;;;;;;5007408;28;20188;-80
2022/04/05 12:21:08;;;;;;;0.30;0.30;;;8.30;99.90;;;;;;4977445;28;20443;-79
2022/04/05 12:23:39;;;;;;;0.30;0.30;;;8.70;99.90;;;;;;5003901;28;20443;-78
2022/04/05 12:26:09;;;;;;;0.20;0.20;;;9.30;99.90;;;;;;4999146;28;20452;-78
2022/04/05 12:28:40;;;;;;;0.20;0.20;;;9.30;99.90;;;;;;5006866;28;20447;-79
2022/04/05 12:31:10;;;;;;;0.20;0.20;;;9.40;99.90;;;;;;5011736;28;20533;-78
2022/04/05 12:33:37;;;;;;;0.20;0.20;;;10.00;99.90;;;;;;5000974;28;20531;-78
2022/04/05 12:36:04;;;;;;;0.20;0.20;;;8.70;99.90;;;;;;5006953;28;20467;-78
2022/04/05 12:38:31;;;;;;;0.20;0.20;;;8.70;99.90;;;;;;4991171;28;20997;-78
2022/04/05 12:40:57;;;;;;;0.20;0.20;;;8.40;99.90;;;;;;5009833;28;20434;-81
2022/04/05 12:43:23;;;;;;;0.30;0.30;;;8.10;99.90;;;;;;5008924;28;20443;-81
2022/04/05 12:45:50;;;;;;;0.27;0.27;;;8.70;99.90;;;;;;4996477;28;20473;-78
2022/04/05 12:48:18;;;;;;;0.20;0.20;;;8.90;99.90;;;;;;5010247;28;20184;-79
2022/04/05 12:50:51;;;;;;;0.30;0.30;;;8.90;99.90;;;;;;4989666;28;20439;-78
2022/04/05 12:53:27;;;;;;;0.30;0.30;;;8.70;99.90;;;;;;5004236;28;20453;-78
2022/04/05 12:56:01;;;;;;;0.20;0.20;;;8.90;99.90;;;;;;5005340;28;20493;-78
2022/04/05 12:59:02;;;;;;;0.20;0.20;;;9.20;99.90;;;;;;5007083;28;20441;-78
2022/04/05 13:01:29;;;;;;;0.20;0.20;;;9.60;99.90;;;;;;5002039;28;20451;-78
2022/04/05 13:04:02;;;;;;;0.23;0.23;;;8.70;99.90;;;;;;5005965;28;20443;-77
2022/04/05 13:06:30;;;;;;;0.30;0.30;;;8.50;99.90;;;;;;5007709;28;20501;-78